Capitol Logistics 2392

Operating for ATN



PKWA
Bucholz AAF Airport
Kwajalein Atoll, MH
PHNL
Daniel K Inouye International Airport
Honolulu, US

Activity Log

Date Flight Route Aircraft Duration
No Flights Yet

Route Details

Aircraft Information
Group: Narrowbodies
Types: B738,B752
Route Data
Demand: L
Distance: 2126nm
Duration: 4h 04m
Recm'd Route: NDJ 1130N/17200E MANRE R584 MCFLY R584 CHOKO
Origin Wx: PKWA 270620Z AUTO 06013G22KT 10SM SCT021 BKN043 OVC065 27/24 A2979 RMK AO2 T02670243
Dest. Wx: PHNL 270553Z 07005KT 10SM FEW033 FEW050 24/17 A3000 RMK AO2 SLP157 T02440167 10294 20244 51016
Notes: USTRANSCOM CONTRACT FLIGHT | 1X PER WEEK | PAYLOAD LIMITED | ETOPS

Financial History
Total Freight: 0lbs
Average Load: 0lbs/flt
Fuel Used: 0lbs
Avg. Fuel Used: 0lbs/flt
Fuel Expense: $0
Avg. Fuel Expense: $0
Avg. Fuel Cost: $0/lbs
Total Gross Income: $0
Pilot Pay: $0
Total Expenses: $0
Total Revenue: $0
Average Revenue: $0